sensor_id;sensor_type;location;lat;lon;timestamp;pressure;altitude;pressure_sealevel;temperature;humidity
46614;BME280;32338;50.430;6.806;2023-07-13T00:01:14;67073.88;;;15.15;100.00
46614;BME280;32338;50.430;6.806;2023-07-13T00:03:43;67074.81;;;15.13;100.00
46614;BME280;32338;50.430;6.806;2023-07-13T00:06:10;67068.81;;;15.10;100.00
46614;BME280;32338;50.430;6.806;2023-07-13T00:08:38;67060.13;;;15.00;100.00
46614;BME280;32338;50.430;6.806;2023-07-13T00:11:04;67048.81;;;14.89;100.00
46614;BME280;32338;50.430;6.806;2023-07-13T00:13:32;67035.59;;;14.82;100.00
46614;BME280;32338;50.430;6.806;2023-07-13T00:15:58;67030.72;;;14.73;100.00
46614;BME280;32338;50.430;6.806;2023-07-13T00:18:26;67025.06;;;14.68;100.00
46614;BME280;32338;50.430;6.806;2023-07-13T00:20:55;67014.66;;;14.63;100.00
46614;BME280;32338;50.430;6.806;2023-07-13T00:23:30;67012.59;;;14.56;100.00
46614;BME280;32338;50.430;6.806;2023-07-13T00:26:00;66997.91;;;14.43;100.00
46614;BME280;32338;50.430;6.806;2023-07-13T00:28:27;66981.88;;;14.33;100.00
46614;BME280;32338;50.430;6.806;2023-07-13T00:30:53;66983.19;;;14.30;100.00
46614;BME280;32338;50.430;6.806;2023-07-13T00:33:20;66977.34;;;14.22;100.00
46614;BME280;32338;50.430;6.806;2023-07-13T00:35:48;66968.13;;;14.18;100.00
46614;BME280;32338;50.430;6.806;2023-07-13T00:38:14;66957.41;;;14.08;100.00
46614;BME280;32338;50.430;6.806;2023-07-13T00:40:41;66947.78;;;14.00;100.00
46614;BME280;32338;50.430;6.806;2023-07-13T00:43:12;66944.41;;;13.97;100.00
46614;BME280;32338;50.430;6.806;2023-07-13T00:48:44;66950.81;;;13.98;100.00
46614;BME280;32338;50.430;6.806;2023-07-13T00:51:12;66951.34;;;13.98;100.00
46614;BME280;32338;50.430;6.806;2023-07-13T00:53:40;66939.50;;;13.94;100.00
46614;BME280;32338;50.430;6.806;2023-07-13T00:56:06;66937.06;;;13.90;100.00
46614;BME280;32338;50.430;6.806;2023-07-13T00:58:35;66934.03;;;13.85;100.00
46614;BME280;32338;50.430;6.806;2023-07-13T01:01:02;66926.31;;;13.80;100.00
46614;BME280;32338;50.430;6.806;2023-07-13T01:03:29;66914.25;;;13.74;100.00
46614;BME280;32338;50.430;6.806;2023-07-13T01:05:55;66910.88;;;13.64;100.00
46614;BME280;32338;50.430;6.806;2023-07-13T01:08:22;66895.44;;;13.54;100.00
46614;BME280;32338;50.430;6.806;2023-07-13T01:10:53;66895.25;;;13.52;100.00
46614;BME280;32338;50.430;6.806;2023-07-13T01:13:21;66899.38;;;13.51;100.00
46614;BME280;32338;50.430;6.806;2023-07-13T01:15:50;66886.22;;;13.43;100.00
46614;BME280;32338;50.430;6.806;2023-07-13T01:18:20;66877.16;;;13.35;100.00
46614;BME280;32338;50.430;6.806;2023-07-13T01:20:51;66877.31;;;13.30;100.00
46614;BME280;32338;50.430;6.806;2023-07-13T01:23:19;66876.97;;;13.33;100.00
46614;BME280;32338;50.430;6.806;2023-07-13T01:25:45;66878.84;;;13.37;100.00
46614;BME280;32338;50.430;6.806;2023-07-13T01:28:12;66884.09;;;13.37;100.00
46614;BME280;32338;50.430;6.806;2023-07-13T01:30:40;66881.28;;;13.34;100.00
46614;BME280;32338;50.430;6.806;2023-07-13T01:33:11;66871.50;;;13.30;100.00
46614;BME280;32338;50.430;6.806;2023-07-13T01:35:38;66866.22;;;13.23;100.00
46614;BME280;32338;50.430;6.806;2023-07-13T01:38:07;66861.72;;;13.19;100.00
46614;BME280;32338;50.430;6.806;2023-07-13T01:40:35;66853.63;;;13.16;100.00
46614;BME280;32338;50.430;6.806;2023-07-13T01:43:02;66850.22;;;13.13;100.00
46614;BME280;32338;50.430;6.806;2023-07-13T01:45:29;66858.13;;;13.13;100.00
46614;BME280;32338;50.430;6.806;2023-07-13T01:47:56;66849.66;;;13.12;100.00
46614;BME280;32338;50.430;6.806;2023-07-13T01:50:23;66841.19;;;13.05;100.00
46614;BME280;32338;50.430;6.806;2023-07-13T01:52:49;66839.31;;;13.01;100.00
46614;BME280;32338;50.430;6.806;2023-07-13T01:55:17;66834.78;;;12.96;100.00
46614;BME280;32338;50.430;6.806;2023-07-13T01:57:44;66829.69;;;12.92;100.00
46614;BME280;32338;50.430;6.806;2023-07-13T02:00:13;66831.97;;;12.94;100.00
46614;BME280;32338;50.430;6.806;2023-07-13T02:02:39;66824.63;;;12.87;100.00
46614;BME280;32338;50.430;6.806;2023-07-13T02:05:07;66827.81;;;12.88;100.00
46614;BME280;32338;50.430;6.806;2023-07-13T02:07:34;66826.69;;;12.87;100.00
46614;BME280;32338;50.430;6.806;2023-07-13T02:10:00;66828.41;;;12.88;100.00
46614;BME280;32338;50.430;6.806;2023-07-13T02:12:28;66823.88;;;12.84;100.00
46614;BME280;32338;50.430;6.806;2023-07-13T02:14:55;66820.09;;;12.83;100.00
46614;BME280;32338;50.430;6.806;2023-07-13T02:17:21;66816.53;;;12.77;100.00
46614;BME280;32338;50.430;6.806;2023-07-13T02:19:48;66818.22;;;12.79;100.00
46614;BME280;32338;50.430;6.806;2023-07-13T02:22:15;66815.41;;;12.76;100.00
46614;BME280;32338;50.430;6.806;2023-07-13T02:24:41;66812.78;;;12.76;100.00
46614;BME280;32338;50.430;6.806;2023-07-13T02:27:08;66814.28;;;12.75;100.00
46614;BME280;32338;50.430;6.806;2023-07-13T02:29:36;66808.63;;;12.70;100.00
46614;BME280;32338;50.430;6.806;2023-07-13T02:32:03;66803.72;;;12.68;100.00
46614;BME280;32338;50.430;6.806;2023-07-13T02:34:29;66793.78;;;12.61;100.00
46614;BME280;32338;50.430;6.806;2023-07-13T02:36:56;66802.25;;;12.62;100.00
46614;BME280;32338;50.430;6.806;2023-07-13T02:39:23;66796.97;;;12.62;100.00
46614;BME280;32338;50.430;6.806;2023-07-13T02:41:49;66798.47;;;12.61;100.00
46614;BME280;32338;50.430;6.806;2023-07-13T02:44:16;66797.34;;;12.60;100.00
46614;BME280;32338;50.430;6.806;2023-07-13T02:46:44;66798.28;;;12.58;100.00
46614;BME280;32338;50.430;6.806;2023-07-13T02:49:12;66787.94;;;12.54;100.00
46614;BME280;32338;50.430;6.806;2023-07-13T02:51:38;66789.63;;;12.55;100.00
46614;BME280;32338;50.430;6.806;2023-07-13T02:54:05;66783.63;;;12.52;100.00
46614;BME280;32338;50.430;6.806;2023-07-13T02:56:34;66777.78;;;12.44;100.00
46614;BME280;32338;50.430;6.806;2023-07-13T02:59:00;66782.66;;;12.46;100.00
46614;BME280;32338;50.430;6.806;2023-07-13T03:01:27;66786.06;;;12.49;100.00
46614;BME280;32338;50.430;6.806;2023-07-13T03:03:55;66776.28;;;12.45;100.00
46614;BME280;32338;50.430;6.806;2023-07-13T03:06:22;66774.41;;;12.41;100.00
46614;BME280;32338;50.430;6.806;2023-07-13T03:08:50;66766.88;;;12.32;100.00
46614;BME280;32338;50.430;6.806;2023-07-13T03:11:19;66754.66;;;12.23;100.00
46614;BME280;32338;50.430;6.806;2023-07-13T03:13:46;66751.25;;;12.20;100.00
46614;BME280;32338;50.430;6.806;2023-07-13T03:16:14;66750.50;;;12.17;100.00
46614;BME280;32338;50.430;6.806;2023-07-13T03:18:41;66750.69;;;12.20;100.00
46614;BME280;32338;50.430;6.806;2023-07-13T03:21:09;66752.94;;;12.22;100.00
46614;BME280;32338;50.430;6.806;2023-07-13T03:23:36;66750.31;;;12.22;100.00
46614;BME280;32338;50.430;6.806;2023-07-13T03:26:04;66749.00;;;12.18;100.00
46614;BME280;32338;50.430;6.806;2023-07-13T03:28:31;66750.50;;;12.17;100.00
46614;BME280;32338;50.430;6.806;2023-07-13T03:31:03;66743.75;;;12.11;100.00
46614;BME280;32338;50.430;6.806;2023-07-13T03:33:31;66748.25;;;12.15;100.00
46614;BME280;32338;50.430;6.806;2023-07-13T03:35:57;66748.25;;;12.15;100.00
46614;BME280;32338;50.430;6.806;2023-07-13T03:38:26;66753.13;;;12.17;100.00
46614;BME280;32338;50.430;6.806;2023-07-13T03:40:53;66747.69;;;12.22;100.00
46614;BME280;32338;50.430;6.806;2023-07-13T03:43:19;66749.94;;;12.16;100.00
46614;BME280;32338;50.430;6.806;2023-07-13T03:45:46;66750.31;;;12.14;100.00
46614;BME280;32338;50.430;6.806;2023-07-13T03:48:13;66739.97;;;12.10;100.00
46614;BME280;32338;50.430;6.806;2023-07-13T03:50:40;66750.88;;;12.15;100.00
46614;BME280;32338;50.430;6.806;2023-07-13T03:53:07;66753.69;;;12.18;100.00
46614;BME280;32338;50.430;6.806;2023-07-13T03:55:35;66749.56;;;12.19;100.00
46614;BME280;32338;50.430;6.806;2023-07-13T03:58:29;66734.53;;;12.07;100.00
46614;BME280;32338;50.430;6.806;2023-07-13T04:00:57;66735.47;;;12.06;100.00
46614;BME280;32338;50.430;6.806;2023-07-13T04:03:24;66734.69;;;12.03;100.00
46614;BME280;32338;50.430;6.806;2023-07-13T04:05:54;66734.69;;;12.03;100.00
46614;BME280;32338;50.430;6.806;2023-07-13T04:08:25;66739.22;;;12.07;100.00
46614;BME280;32338;50.430;6.806;2023-07-13T04:10:53;66732.06;;;12.03;100.00
46614;BME280;32338;50.430;6.806;2023-07-13T04:13:20;66728.50;;;11.97;100.00
46614;BME280;32338;50.430;6.806;2023-07-13T04:15:47;66726.63;;;12.00;100.00
46614;BME280;32338;50.430;6.806;2023-07-13T04:18:13;66736.19;;;12.02;100.00
46614;BME280;32338;50.430;6.806;2023-07-13T04:20:40;66732.44;;;12.00;100.00
46614;BME280;32338;50.430;6.806;2023-07-13T04:23:06;66735.47;;;12.06;100.00
46614;BME280;32338;50.430;6.806;2023-07-13T04:25:33;66738.66;;;12.06;100.00
46614;BME280;32338;50.430;6.806;2023-07-13T04:28:02;66735.63;;;12.01;100.00
46614;BME280;32338;50.430;6.806;2023-07-13T04:30:29;66728.13;;;11.99;100.00
46614;BME280;32338;50.430;6.806;2023-07-13T04:32:56;66732.06;;;12.03;100.00
46614;BME280;32338;50.430;6.806;2023-07-13T04:35:22;66727.00;;;11.98;100.00
46614;BME280;32338;50.430;6.806;2023-07-13T04:37:49;66731.53;;;12.02;100.00
46614;BME280;32338;50.430;6.806;2023-07-13T04:40:17;66731.72;;;12.05;100.00
46614;BME280;32338;50.430;6.806;2023-07-13T04:42:44;66731.91;;;12.07;100.00
46614;BME280;32338;50.430;6.806;2023-07-13T04:45:12;66746.16;;;12.15;100.00
46614;BME280;32338;50.430;6.806;2023-07-13T04:47:39;66750.31;;;12.14;100.00
46614;BME280;32338;50.430;6.806;2023-07-13T04:50:07;66748.06;;;12.12;100.00
46614;BME280;32338;50.430;6.806;2023-07-13T04:52:36;66746.16;;;12.15;100.00
46614;BME280;32338;50.430;6.806;2023-07-13T04:55:03;66754.81;;;12.19;100.00
46614;BME280;32338;50.430;6.806;2023-07-13T04:57:30;66757.66;;;12.21;100.00
46614;BME280;32338;50.430;6.806;2023-07-13T04:59:56;66762.16;;;12.25;100.00
46614;BME280;32338;50.430;6.806;2023-07-13T05:02:27;66760.28;;;12.28;100.00
46614;BME280;32338;50.430;6.806;2023-07-13T05:04:56;66761.22;;;12.27;100.00
46614;BME280;32338;50.430;6.806;2023-07-13T05:07:23;66764.41;;;12.27;100.00
46614;BME280;32338;50.430;6.806;2023-07-13T05:09:49;66760.09;;;12.33;100.00
46614;BME280;32338;50.430;6.806;2023-07-13T05:12:16;66766.50;;;12.34;100.00
46614;BME280;32338;50.430;6.806;2023-07-13T05:14:42;66766.09;;;12.29;100.00
46614;BME280;32338;50.430;6.806;2023-07-13T05:17:09;66766.50;;;12.34;100.00
46614;BME280;32338;50.430;6.806;2023-07-13T05:19:37;66775.16;;;12.37;100.00
46614;BME280;32338;50.430;6.806;2023-07-13T05:22:04;66775.53;;;12.42;100.00
46614;BME280;32338;50.430;6.806;2023-07-13T05:24:31;66781.16;;;12.47;100.00
46614;BME280;32338;50.430;6.806;2023-07-13T05:26:57;66784.53;;;12.51;100.00
46614;BME280;32338;50.430;6.806;2023-07-13T05:29:24;66784.53;;;12.51;100.00
46614;BME280;32338;50.430;6.806;2023-07-13T05:31:50;66786.81;;;12.53;100.00
46614;BME280;32338;50.430;6.806;2023-07-13T05:34:17;66792.09;;;12.60;100.00
46614;BME280;32338;50.430;6.806;2023-07-13T05:36:45;66801.28;;;12.63;100.00
46614;BME280;32338;50.430;6.806;2023-07-13T05:39:11;66819.34;;;12.80;100.00
46614;BME280;32338;50.430;6.806;2023-07-13T05:41:38;66819.56;;;12.82;100.00
46614;BME280;32338;50.430;6.806;2023-07-13T05:44:05;66822.94;;;12.86;100.00
46614;BME280;32338;50.430;6.806;2023-07-13T05:46:31;66833.09;;;12.95;100.00
46614;BME280;32338;50.430;6.806;2023-07-13T05:48:59;66841.94;;;13.01;100.00
46614;BME280;32338;50.430;6.806;2023-07-13T05:51:25;66852.84;;;13.13;100.00
46614;BME280;32338;50.430;6.806;2023-07-13T05:53:53;66869.81;;;13.28;100.00
46614;BME280;32338;50.430;6.806;2023-07-13T05:56:20;66871.69;;;13.25;100.00
46614;BME280;32338;50.430;6.806;2023-07-13T05:58:47;66877.50;;;13.33;100.00
46614;BME280;32338;50.430;6.806;2023-07-13T06:01:15;66883.75;;;13.39;100.00
46614;BME280;32338;50.430;6.806;2023-07-13T06:03:45;66890.72;;;13.48;100.00
46614;BME280;32338;50.430;6.806;2023-07-13T06:06:12;66896.38;;;13.53;100.00
46614;BME280;32338;50.430;6.806;2023-07-13T06:08:39;66904.09;;;13.57;100.00
46614;BME280;32338;50.430;6.806;2023-07-13T06:11:10;66908.25;;;13.64;100.00
46614;BME280;32338;50.430;6.806;2023-07-13T06:13:38;66926.50;;;13.75;100.00
46614;BME280;32338;50.430;6.806;2023-07-13T06:16:05;66926.69;;;13.78;100.00
46614;BME280;32338;50.430;6.806;2023-07-13T06:18:33;66940.44;;;13.93;100.00
46614;BME280;32338;50.430;6.806;2023-07-13T06:21:01;66948.72;;;13.98;100.00
46614;BME280;32338;50.430;6.806;2023-07-13T06:23:27;66956.09;;;14.05;100.00
46614;BME280;32338;50.430;6.806;2023-07-13T06:25:54;66966.06;;;14.11;100.00
46614;BME280;32338;50.430;6.806;2023-07-13T06:28:23;66979.63;;;14.24;100.00
46614;BME280;32338;50.430;6.806;2023-07-13T06:30:49;66980.19;;;14.24;100.00
46614;BME280;32338;50.430;6.806;2023-07-13T06:33:16;66984.91;;;14.31;100.00
46614;BME280;32338;50.430;6.806;2023-07-13T06:35:42;66988.88;;;14.35;100.00
46614;BME280;32338;50.430;6.806;2023-07-13T06:38:09;66997.72;;;14.40;100.00
46614;BME280;32338;50.430;6.806;2023-07-13T06:40:35;66997.34;;;14.42;100.00
46614;BME280;32338;50.430;6.806;2023-07-13T06:43:02;67008.09;;;14.52;100.00
46614;BME280;32338;50.430;6.806;2023-07-13T06:45:30;67013.16;;;14.57;100.00
46614;BME280;32338;50.430;6.806;2023-07-13T06:47:56;67034.84;;;14.79;100.00
46614;BME280;32338;50.430;6.806;2023-07-13T06:50:23;67036.00;;;14.80;100.00
46614;BME280;32338;50.430;6.806;2023-07-13T06:52:50;67036.75;;;14.83;100.00
46614;BME280;32338;50.430;6.806;2023-07-13T06:55:18;67053.53;;;14.96;100.00
46614;BME280;32338;50.430;6.806;2023-07-13T06:57:44;67059.75;;;15.02;100.00
46614;BME280;32338;50.430;6.806;2023-07-13T07:00:12;67074.81;;;15.13;100.00
46614;BME280;32338;50.430;6.806;2023-07-13T07:02:40;67092.19;;;15.27;100.00
46614;BME280;32338;50.430;6.806;2023-07-13T07:05:07;67094.81;;;15.34;100.00
46614;BME280;32338;50.430;6.806;2023-07-13T07:07:33;67100.84;;;15.37;100.00
46614;BME280;32338;50.430;6.806;2023-07-13T07:10:00;67115.38;;;15.55;100.00
46614;BME280;32338;50.430;6.806;2023-07-13T07:12:28;67130.66;;;15.69;100.00
46614;BME280;32338;50.430;6.806;2023-07-13T07:14:55;67128.19;;;15.64;100.00
46614;BME280;32338;50.430;6.806;2023-07-13T07:17:21;67132.16;;;15.68;100.00
46614;BME280;32338;50.430;6.806;2023-07-13T07:19:49;67123.50;;;15.57;100.00
46614;BME280;32338;50.430;6.806;2023-07-13T07:22:16;67124.81;;;15.61;100.00
46614;BME280;32338;50.430;6.806;2023-07-13T07:24:42;67134.22;;;15.67;100.00
46614;BME280;32338;50.430;6.806;2023-07-13T07:27:09;67141.78;;;15.77;100.00
46614;BME280;32338;50.430;6.806;2023-07-13T07:29:35;67147.25;;;15.79;100.00
46614;BME280;32338;50.430;6.806;2023-07-13T07:32:02;67167.25;;;16.00;100.00
46614;BME280;32338;50.430;6.806;2023-07-13T07:34:29;67175.75;;;16.08;100.00
46614;BME280;32338;50.430;6.806;2023-07-13T07:36:59;67178.59;;;16.10;100.00
46614;BME280;32338;50.430;6.806;2023-07-13T07:39:26;67188.03;;;16.16;100.00
46614;BME280;32338;50.430;6.806;2023-07-13T07:41:52;67194.06;;;16.27;100.00
46614;BME280;32338;50.430;6.806;2023-07-13T07:44:19;67206.50;;;16.38;100.00
46614;BME280;32338;50.430;6.806;2023-07-13T07:46:45;67212.56;;;16.41;100.00
46614;BME280;32338;50.430;6.806;2023-07-13T07:49:12;67227.84;;;16.55;100.00
46614;BME280;32338;50.430;6.806;2023-07-13T07:51:38;67232.56;;;16.62;100.00
46614;BME280;32338;50.430;6.806;2023-07-13T07:54:06;67233.34;;;16.58;100.00
46614;BME280;32338;50.430;6.806;2023-07-13T07:56:33;67233.91;;;16.58;100.00
46614;BME280;32338;50.430;6.806;2023-07-13T07:59:00;67230.50;;;16.55;100.00
46614;BME280;32338;50.430;6.806;2023-07-13T08:01:26;67239.75;;;16.66;100.00
46614;BME280;32338;50.430;6.806;2023-07-13T08:03:53;67242.00;;;16.68;100.00
46614;BME280;32338;50.430;6.806;2023-07-13T08:06:19;67257.66;;;16.80;100.00
46614;BME280;32338;50.430;6.806;2023-07-13T08:08:47;67266.38;;;16.90;100.00
46614;BME280;32338;50.430;6.806;2023-07-13T08:11:15;67293.00;;;17.14;100.00
46614;BME280;32338;50.430;6.806;2023-07-13T08:13:42;67303.19;;;17.24;100.00
46614;BME280;32338;50.430;6.806;2023-07-13T08:16:09;67298.66;;;17.20;100.00
46614;BME280;32338;50.430;6.806;2023-07-13T08:18:37;67305.47;;;17.26;100.00
46614;BME280;32338;50.430;6.806;2023-07-13T08:21:04;67315.47;;;17.32;100.00
46614;BME280;32338;50.430;6.806;2023-07-13T08:23:31;67319.06;;;17.38;100.00
46614;BME280;32338;50.430;6.806;2023-07-13T08:25:57;67313.41;;;17.33;100.00
46614;BME280;32338;50.430;6.806;2023-07-13T08:28:28;67313.41;;;17.33;100.00
46614;BME280;32338;50.430;6.806;2023-07-13T08:30:55;67334.75;;;17.50;100.00
46614;BME280;32338;50.430;6.806;2023-07-13T08:33:22;67335.31;;;17.50;100.00
46614;BME280;32338;50.430;6.806;2023-07-13T08:35:50;67338.34;;;17.56;100.00
46614;BME280;32338;50.430;6.806;2023-07-13T08:38:18;67348.16;;;17.60;100.00
46614;BME280;32338;50.430;6.806;2023-07-13T08:40:50;67357.06;;;17.73;100.00
46614;BME280;32338;50.430;6.806;2023-07-13T08:43:19;67367.06;;;17.79;100.00
46614;BME280;32338;50.430;6.806;2023-07-13T08:45:51;67374.25;;;17.83;100.00
46614;BME280;32338;50.430;6.806;2023-07-13T08:48:22;67381.63;;;17.97;100.00
46614;BME280;32338;50.430;6.806;2023-07-13T08:50:54;67384.66;;;17.95;100.00
46614;BME280;32338;50.430;6.806;2023-07-13T08:53:23;67378.78;;;17.95;100.00
46614;BME280;32338;50.430;6.806;2023-07-13T08:55:53;67393.16;;;18.03;100.00
46614;BME280;32338;50.430;6.806;2023-07-13T08:58:25;67407.72;;;18.14;100.00
46614;BME280;32338;50.430;6.806;2023-07-13T09:00:59;67420.56;;;18.30;100.00
46614;BME280;32338;50.430;6.806;2023-07-13T09:03:37;67442.88;;;18.46;100.00
46614;BME280;32338;50.430;6.806;2023-07-13T09:06:08;67416.97;;;18.32;98.80
46614;BME280;32338;50.430;6.806;2023-07-13T09:08:47;67409.97;;;18.23;99.77
46614;BME280;32338;50.430;6.806;2023-07-13T09:11:28;67409.78;;;18.21;99.28
46614;BME280;32338;50.430;6.806;2023-07-13T09:14:03;67413.00;;;18.21;99.86
46614;BME280;32338;50.430;6.806;2023-07-13T09:16:33;67421.50;;;18.29;100.00
46614;BME280;32338;50.430;6.806;2023-07-13T09:19:04;67436.44;;;18.45;100.00
46614;BME280;32338;50.430;6.806;2023-07-13T09:21:34;67429.81;;;18.41;99.54
46614;BME280;32338;50.430;6.806;2023-07-13T09:24:26;67426.25;;;18.36;96.35
46614;BME280;32338;50.430;6.806;2023-07-13T09:26:55;67421.50;;;18.29;96.77
46614;BME280;32338;50.430;6.806;2023-07-13T09:29:27;67407.91;;;18.17;95.12
46614;BME280;32338;50.430;6.806;2023-07-13T09:31:58;67416.59;;;18.27;95.01
46614;BME280;32338;50.430;6.806;2023-07-13T09:34:28;67437.56;;;18.46;93.32
46614;BME280;32338;50.430;6.806;2023-07-13T09:36:56;67452.88;;;18.60;92.58
46614;BME280;32338;50.430;6.806;2023-07-13T09:39:26;67434.34;;;18.45;92.02
46614;BME280;32338;50.430;6.806;2023-07-13T09:41:57;67430.59;;;18.37;92.83
46614;BME280;32338;50.430;6.806;2023-07-13T09:44:31;67442.50;;;18.48;93.26
46614;BME280;32338;50.430;6.806;2023-07-13T09:47:02;67465.94;;;18.72;94.07
46614;BME280;32338;50.430;6.806;2023-07-13T09:49:35;67457.78;;;18.69;88.90
46614;BME280;32338;50.430;6.806;2023-07-13T09:52:04;67446.06;;;18.54;89.50
46614;BME280;32338;50.430;6.806;2023-07-13T09:54:34;67433.03;;;18.42;89.89
46614;BME280;32338;50.430;6.806;2023-07-13T09:57:02;67416.19;;;18.29;88.48
46614;BME280;32338;50.430;6.806;2023-07-13T09:59:32;67423.00;;;18.35;91.07
46614;BME280;32338;50.430;6.806;2023-07-13T10:01:59;67425.28;;;18.37;89.89
46614;BME280;32338;50.430;6.806;2023-07-13T10:04:30;67448.53;;;18.58;93.43
46614;BME280;32338;50.430;6.806;2023-07-13T10:07:05;67480.13;;;18.85;92.91
46614;BME280;32338;50.430;6.806;2023-07-13T10:09:32;67491.47;;;18.95;94.05
46614;BME280;32338;50.430;6.806;2023-07-13T10:11:59;67477.47;;;18.85;87.18
46614;BME280;32338;50.430;6.806;2023-07-13T10:14:27;67454.19;;;18.63;88.19
46614;BME280;32338;50.430;6.806;2023-07-13T10:17:01;67449.31;;;18.54;88.32
46614;BME280;32338;50.430;6.806;2023-07-13T10:19:32;67441.38;;;18.47;84.95
46614;BME280;32338;50.430;6.806;2023-07-13T10:22:05;67441.38;;;18.47;86.11
46614;BME280;32338;50.430;6.806;2023-07-13T10:24:39;67442.28;;;18.53;85.69
46614;BME280;32338;50.430;6.806;2023-07-13T10:27:12;67462.16;;;18.71;81.23
46614;BME280;32338;50.430;6.806;2023-07-13T10:29:45;67467.63;;;18.73;83.80
46614;BME280;32338;50.430;6.806;2023-07-13T10:32:13;67480.28;;;18.87;81.80
46614;BME280;32338;50.430;6.806;2023-07-13T10:34:43;67479.34;;;18.89;84.08
46614;BME280;32338;50.430;6.806;2023-07-13T10:37:16;67485.78;;;18.90;80.21
46614;BME280;32338;50.430;6.806;2023-07-13T10:39:46;67475.41;;;18.78;81.79
46614;BME280;32338;50.430;6.806;2023-07-13T10:42:25;67471.44;;;18.74;81.99
46614;BME280;32338;50.430;6.806;2023-07-13T10:44:53;67459.88;;;18.69;82.15
46614;BME280;32338;50.430;6.806;2023-07-13T10:47:20;67457.03;;;18.66;83.27
46614;BME280;32338;50.430;6.806;2023-07-13T10:49:52;67464.03;;;18.68;83.98
46614;BME280;32338;50.430;6.806;2023-07-13T10:52:41;67466.31;;;18.70;84.59
46614;BME280;32338;50.430;6.806;2023-07-13T10:58:13;67473.13;;;18.76;84.10
46614;BME280;32338;50.430;6.806;2023-07-13T11:00:46;67493.34;;;18.99;84.45
46614;BME280;32338;50.430;6.806;2023-07-13T11:03:15;67488.81;;;18.95;83.99
46614;BME280;32338;50.430;6.806;2023-07-13T11:05:48;67482.78;;;18.92;82.13
46614;BME280;32338;50.430;6.806;2023-07-13T11:08:20;67490.91;;;18.94;82.54
46614;BME280;32338;50.430;6.806;2023-07-13T11:10:53;67495.63;;;19.01;79.92
46614;BME280;32338;50.430;6.806;2023-07-13T11:13:38;67530.06;;;19.30;83.34
46614;BME280;32338;50.430;6.806;2023-07-13T11:16:42;67566.41;;;19.63;80.94
46614;BME280;32338;50.430;6.806;2023-07-13T11:19:39;67548.22;;;19.47;74.67
46614;BME280;32338;50.430;6.806;2023-07-13T11:22:16;67547.66;;;19.46;76.35
46614;BME280;32338;50.430;6.806;2023-07-13T11:24:59;67521.38;;;19.20;76.58
46614;BME280;32338;50.430;6.806;2023-07-13T11:27:45;67495.81;;;19.04;79.64
46614;BME280;32338;50.430;6.806;2023-07-13T11:30:23;67505.09;;;19.07;80.23
46614;BME280;32338;50.430;6.806;2023-07-13T11:32:52;67525.53;;;19.26;79.12
46614;BME280;32338;50.430;6.806;2023-07-13T11:35:33;67527.22;;;19.27;78.47
46614;BME280;32338;50.430;6.806;2023-07-13T11:38:03;67537.63;;;19.39;77.96
46614;BME280;32338;50.430;6.806;2023-07-13T11:40:35;67551.06;;;19.49;75.32
46614;BME280;32338;50.430;6.806;2023-07-13T11:43:02;67540.13;;;19.37;73.84
46614;BME280;32338;50.430;6.806;2023-07-13T11:45:32;67517.59;;;19.19;74.75
46614;BME280;32338;50.430;6.806;2023-07-13T11:47:59;67512.66;;;19.17;77.13
46614;BME280;32338;50.430;6.806;2023-07-13T11:50:27;67521.75;;;19.25;77.74
46614;BME280;32338;50.430;6.806;2023-07-13T11:52:54;67524.41;;;19.25;77.51
46614;BME280;32338;50.430;6.806;2023-07-13T11:55:23;67548.03;;;19.44;76.27
46614;BME280;32338;50.430;6.806;2023-07-13T11:57:53;67532.91;;;19.33;76.30
46614;BME280;32338;50.430;6.806;2023-07-13T12:00:28;67532.34;;;19.32;77.55
46614;BME280;32338;50.430;6.806;2023-07-13T12:02:57;67538.41;;;19.35;76.52
46614;BME280;32338;50.430;6.806;2023-07-13T12:05:25;67536.50;;;19.38;76.68
46614;BME280;32338;50.430;6.806;2023-07-13T12:07:53;67525.16;;;19.28;76.62
46614;BME280;32338;50.430;6.806;2023-07-13T12:10:22;67531.75;;;19.32;77.08
46614;BME280;32338;50.430;6.806;2023-07-13T12:12:55;67533.47;;;19.33;78.04
46614;BME280;32338;50.430;6.806;2023-07-13T12:15:23;67535.19;;;19.35;76.20
46614;BME280;32338;50.430;6.806;2023-07-13T12:17:50;67535.19;;;19.35;76.82
46614;BME280;32338;50.430;6.806;2023-07-13T12:20:20;67531.22;;;19.31;77.84
46614;BME280;32338;50.430;6.806;2023-07-13T12:22:50;67520.94;;;19.29;77.54
46614;BME280;32338;50.430;6.806;2023-07-13T12:25:17;67527.22;;;19.27;77.23
46614;BME280;32338;50.430;6.806;2023-07-13T12:27:47;67532.13;;;19.37;77.92
46614;BME280;32338;50.430;6.806;2023-07-13T12:30:28;67526.66;;;19.27;74.62
46614;BME280;32338;50.430;6.806;2023-07-13T12:32:57;67522.88;;;19.26;75.13
46614;BME280;32338;50.430;6.806;2023-07-13T12:35:26;67527.81;;;19.28;77.22
46614;BME280;32338;50.430;6.806;2023-07-13T12:37:56;67516.63;;;19.20;74.96
46614;BME280;32338;50.430;6.806;2023-07-13T12:40:30;67535.75;;;19.35;76.11
46614;BME280;32338;50.430;6.806;2023-07-13T12:42:58;67530.66;;;19.31;76.67
46614;BME280;32338;50.430;6.806;2023-07-13T12:45:27;67535.75;;;19.35;77.10
46614;BME280;32338;50.430;6.806;2023-07-13T12:47:55;67524.94;;;19.33;75.27
46614;BME280;32338;50.430;6.806;2023-07-13T12:50:29;67526.66;;;19.27;76.95
46614;BME280;32338;50.430;6.806;2023-07-13T12:53:01;67517.59;;;19.19;76.69
46614;BME280;32338;50.430;6.806;2023-07-13T12:55:29;67514.56;;;19.14;75.47
46614;BME280;32338;50.430;6.806;2023-07-13T12:57:59;67504.94;;;19.05;75.14
46614;BME280;32338;50.430;6.806;2023-07-13T13:00:30;67493.75;;;18.97;75.54
46614;BME280;32338;50.430;6.806;2023-07-13T13:03:01;67498.66;;;18.99;77.47
46614;BME280;32338;50.430;6.806;2023-07-13T13:05:29;67502.66;;;19.03;77.57
46614;BME280;32338;50.430;6.806;2023-07-13T13:07:57;67503.97;;;19.06;78.49